Time;durP1;ratioP1;P1;durP2;ratioP2;P2;SDS_P1;SDS_P2;PMS_P1;PMS_P2;Temp;Humidity;BMP_temperature;BMP_pressure;BME280_temperature;BME280_humidity;BME280_pressure;Samples;Min_cycle;Max_cycle;Signal;HPM_P1;HPM_P2
2021/09/29 05:00:30;;;;;;;10.83;9.83;;;;;;;12.83;98.20;95348.97;6044947;23;20053;31
2021/09/29 05:02:55;;;;;;;9.70;8.98;;;;;;;12.77;97.90;95341.88;4967913;28;20070;-96
2021/09/29 05:05:21;;;;;;;30.67;9.40;;;;;;;12.68;98.27;95338.56;4970265;28;20539;-90
2021/09/29 05:07:49;;;;;;;25.33;11.60;;;;;;;12.70;98.41;95331.38;4986384;28;20027;-91
2021/09/29 05:10:16;;;;;;;406.63;24.77;;;;;;;12.72;97.50;95339.78;4971486;28;20046;-90
2021/09/29 05:12:42;;;;;;;10.88;10.07;;;;;;;12.92;97.86;95345.34;4969893;28;20050;-95
2021/09/29 05:15:08;;;;;;;10.77;9.88;;;;;;;12.92;98.39;95351.34;4971471;28;20029;-93
2021/09/29 05:17:33;;;;;;;10.10;9.40;;;;;;;12.83;98.38;95352.41;4969809;28;20499;-91
2021/09/29 05:19:58;;;;;;;188.73;18.10;;;;;;;12.84;98.92;95353.22;4972350;28;20508;-91
2021/09/29 05:22:24;;;;;;;941.17;52.90;;;;;;;12.67;99.24;95352.50;4970940;28;20034;-92
2021/09/29 05:24:49;;;;;;;1999.90;158.13;;;;;;;12.41;99.44;95313.06;4988054;28;20030;-95
2021/09/29 05:27:15;;;;;;;38.85;12.20;;;;;;;12.62;99.59;95358.22;4973075;28;20034;-96
2021/09/29 05:29:42;;;;;;;1567.75;88.85;;;;;;;12.56;99.66;95345.09;4955276;28;20030;-96
2021/09/29 05:32:07;;;;;;;11.73;10.82;;;;;;;12.68;99.46;95361.94;4956302;28;20027;-90
2021/09/29 05:34:33;;;;;;;33.28;11.90;;;;;;;12.49;99.43;95347.59;4953717;28;20034;-91
2021/09/29 05:36:59;;;;;;;11.63;10.73;;;;;;;12.66;99.49;95332.69;4955156;28;20042;-86
2021/09/29 05:39:24;;;;;;;46.75;12.73;;;;;;;12.63;98.91;95339.06;4968625;28;20113;-85
2021/09/29 05:41:50;;;;;;;1819.15;151.77;;;;;;;12.67;99.56;95368.09;4976840;28;20484;-87
2021/09/29 05:44:15;;;;;;;13.32;12.23;;;;;;;12.60;99.22;95338.59;4968617;28;20038;-86
2021/09/29 05:46:41;;;;;;;12.90;11.77;;;;;;;12.77;99.71;95363.50;4954317;28;20041;-91
2021/09/29 05:49:06;;;;;;;13.48;12.38;;;;;;;12.68;99.19;95360.13;4955492;28;20476;-90
2021/09/29 05:51:32;;;;;;;34.22;12.52;;;;;;;12.72;99.13;95351.97;4970182;28;20499;-88
2021/09/29 05:53:57;;;;;;;14.63;13.43;;;;;;;12.88;99.52;95370.06;4954925;28;20492;-89
2021/09/29 05:56:23;;;;;;;179.75;18.08;;;;;;;12.78;98.45;95338.31;4953433;28;20081;-96
2021/09/29 05:58:49;;;;;;;174.05;19.23;;;;;;;12.92;98.30;95384.31;4955397;28;20027;-87
2021/09/29 06:01:14;;;;;;;13.90;12.80;;;;;;;13.08;98.45;95390.25;4952195;28;20051;-88
2021/09/29 06:03:39;;;;;;;12.60;11.57;;;;;;;13.01;98.06;95383.28;4970796;28;20123;-89
2021/09/29 06:06:05;;;;;;;10.88;10.07;;;;;;;13.15;97.83;95393.78;4970137;28;20038;-88
2021/09/29 06:08:31;;;;;;;13.45;12.13;;;;;;;13.17;98.01;95396.19;4986167;28;20054;-89
2021/09/29 06:10:57;;;;;;;13.98;12.82;;;;;;;13.13;98.12;95398.31;4954775;28;20431;-87
2021/09/29 06:13:24;;;;;;;11.77;10.88;;;;;;;13.15;97.44;95392.97;4968194;28;20038;-89
2021/09/29 06:15:50;;;;;;;11.60;10.60;;;;;;;13.18;97.11;95377.00;4970493;28;20109;-91
2021/09/29 06:18:16;;;;;;;13.00;11.95;;;;;;;13.40;97.15;95407.38;4968921;28;20030;-91
2021/09/29 06:20:46;;;;;;;11.82;10.98;;;;;;;13.17;96.79;95383.19;4971252;28;20077;-91
2021/09/29 06:23:11;;;;;;;;;;;;;;;13.34;96.78;95404.66;4969506;28;20027;-85
2021/09/29 06:25:37;;;;;;;353.85;24.58;;;;;;;13.04;96.07;95385.53;4965591;28;20000;-89
2021/09/29 06:28:02;;;;;;;11.35;10.52;;;;;;;13.45;95.71;95388.63;4971267;28;20030;-89
2021/09/29 06:30:28;;;;;;;9.98;9.27;;;;;;;13.33;95.72;95406.44;4988291;28;20622;-88
2021/09/29 06:32:53;;;;;;;36.33;10.55;;;;;;;13.35;95.84;95399.28;4990904;28;20030;-89
2021/09/29 06:35:19;;;;;;;54.67;12.55;;;;;;;13.46;95.03;95395.44;4987395;28;20024;-86
2021/09/29 06:37:44;;;;;;;10.45;9.65;;;;;;;13.53;95.30;95394.56;4988747;28;20026;-86
2021/09/29 06:40:14;;;;;;;139.25;17.27;;;;;;;13.45;95.08;95376.41;4987222;28;20026;-86
2021/09/29 06:42:40;;;;;;;11.77;10.88;;;;;;;13.64;95.64;95412.34;4987943;28;20034;-86
2021/09/29 06:45:06;;;;;;;30.67;11.30;;;;;;;13.61;95.60;95406.69;4971680;28;20212;-86
2021/09/29 06:47:32;;;;;;;9.82;9.07;;;;;;;13.62;95.05;95395.28;5004046;28;20461;-89
2021/09/29 06:49:57;;;;;;;560.95;33.90;;;;;;;13.58;95.15;95412.25;4989597;28;20105;-91
2021/09/29 06:52:23;;;;;;;246.05;19.48;;;;;;;13.59;94.71;95404.25;4988149;28;20030;-86
2021/09/29 06:54:48;;;;;;;9.32;8.63;;;;;;;13.70;94.51;95411.63;4972736;28;20089;-89
2021/09/29 06:57:13;;;;;;;151.55;16.92;;;;;;;13.64;94.80;95388.13;4970646;28;20030;-91
2021/09/29 06:59:40;;;;;;;9.32;8.57;;;;;;;13.30;93.72;95346.97;4972769;28;21098;-88
2021/09/29 07:02:05;;;;;;;263.02;18.50;;;;;;;13.31;93.82;95376.41;4971603;28;20389;-88
2021/09/29 07:04:30;;;;;;;11.32;10.23;;;;;;;13.60;94.09;95399.84;4988608;28;20095;-88
2021/09/29 07:06:56;;;;;;;419.08;35.15;;;;;;;13.66;93.88;95406.97;4972451;28;20117;-89
2021/09/29 07:09:21;;;;;;;423.77;30.60;;;;;;;13.52;93.67;95424.16;4971959;28;20022;-88
2021/09/29 07:11:47;;;;;;;1751.85;120.68;;;;;;;13.61;93.46;95409.28;4972359;28;20034;-89
2021/09/29 07:14:13;;;;;;;11.80;10.43;;;;;;;13.71;93.30;95425.44;4987540;28;20027;-88
2021/09/29 07:16:39;;;;;;;164.02;15.70;;;;;;;13.51;93.24;95403.53;4987218;28;20092;-91
2021/09/29 07:19:04;;;;;;;754.63;46.25;;;;;;;13.44;93.66;95395.63;4985209;28;20026;-90
2021/09/29 07:21:30;;;;;;;10.23;9.38;;;;;;;13.66;93.91;95420.78;4971810;28;20577;-87
2021/09/29 07:23:56;;;;;;;10.25;9.20;;;;;;;13.66;93.59;95431.19;4987267;28;20042;-88
2021/09/29 07:26:21;;;;;;;19.65;10.95;;;;;;;13.68;93.46;95407.56;4987144;28;20035;-90
2021/09/29 07:28:48;;;;;;;69.10;12.73;;;;;;;13.83;93.73;95431.84;4988446;28;20045;-89
2021/09/29 07:31:14;;;;;;;238.20;19.90;;;;;;;13.40;93.25;95380.53;4987971;28;20026;-88
2021/09/29 07:33:39;;;;;;;134.48;14.00;;;;;;;13.55;92.92;95397.00;4972559;28;20610;-89
2021/09/29 07:36:06;;;;;;;93.18;13.88;;;;;;;13.96;93.13;95429.44;4970682;28;20089;-88
2021/09/29 07:38:31;;;;;;;11.13;10.13;;;;;;;14.15;92.98;95428.88;4972534;28;20023;-89
2021/09/29 07:40:57;;;;;;;12.60;11.50;;;;;;;14.36;92.39;95428.16;4987036;28;20049;-88
2021/09/29 07:43:22;;;;;;;11.30;10.20;;;;;;;14.09;92.45;95427.00;5005139;28;20030;-88
2021/09/29 07:45:48;;;;;;;14.48;10.85;;;;;;;14.20;92.71;95429.13;4987883;28;20045;-87
2021/09/29 07:48:13;;;;;;;23.75;11.98;;;;;;;14.28;92.70;95417.81;4972865;28;20019;-88
2021/09/29 07:50:39;;;;;;;51.13;11.23;;;;;;;14.05;91.64;95430.94;4969152;28;20027;-90
2021/09/29 07:53:04;;;;;;;11.40;10.25;;;;;;;14.24;92.06;95427.00;4984349;28;20034;-88
2021/09/29 07:55:30;;;;;;;877.88;53.22;;;;;;;14.03;91.57;95434.72;4988636;28;20030;-90
2021/09/29 07:57:55;;;;;;;82.80;12.10;;;;;;;14.03;91.79;95432.13;4967637;28;20078;-88
2021/09/29 08:00:21;;;;;;;80.78;13.23;;;;;;;13.40;91.71;95336.31;4965768;28;20028;-91
2021/09/29 08:02:46;;;;;;;11.10;10.10;;;;;;;14.11;91.96;95430.22;4978981;28;20550;-87
2021/09/29 08:05:12;;;;;;;224.02;18.63;;;;;;;14.08;91.28;95429.78;4948543;28;20428;-87
2021/09/29 08:07:38;;;;;;;53.20;14.20;;;;;;;14.14;91.64;95421.25;4969887;28;20029;-84
2021/09/29 08:10:05;;;;;;;13.48;12.27;;;;;;;14.35;90.94;95423.16;4953778;28;20035;-85
2021/09/29 08:12:31;;;;;;;13.25;12.13;;;;;;;14.10;90.32;95402.56;4957372;28;20053;-86
2021/09/29 08:14:56;;;;;;;419.80;31.05;;;;;;;14.19;90.48;95437.94;4950780;29;20031;-86
2021/09/29 08:17:22;;;;;;;13.60;12.30;;;;;;;14.27;90.82;95442.25;4953505;28;20035;-86
2021/09/29 08:19:48;;;;;;;1709.07;98.10;;;;;;;14.08;89.87;95409.75;4950994;29;20035;-91
2021/09/29 08:22:13;;;;;;;80.30;15.70;;;;;;;14.10;90.81;95420.78;4952987;29;20106;-88
2021/09/29 08:29:47;;;;;;;63.28;16.50;;;;;;;14.06;91.54;95421.34;4955982;28;20038;-86
2021/09/29 08:42:20;;;;;;;68.40;16.88;;;;;;;14.27;90.23;95424.81;4970338;28;20090;-87
2021/09/29 08:44:51;;;;;;;1983.50;112.38;;;;;;;14.37;89.78;95419.38;4963840;28;20051;-83
2021/09/29 09:14:50;;;;;;;706.85;49.65;;;;;;;14.80;87.76;95420.25;4967580;28;20062;-85
2021/09/29 09:16:33;;;;;;;9.18;8.38;;;;;;;15.18;85.98;95433.88;5001513;28;20041;-86
2021/09/29 09:19:10;;;;;;;660.25;42.42;;;;;;;14.82;85.63;95373.94;4988591;28;20078;-87
2021/09/29 09:21:52;;;;;;;1141.05;60.22;;;;;;;15.09;85.73;95420.13;4988657;28;20027;-92
2021/09/29 09:24:20;;;;;;;1522.20;87.25;;;;;;;14.80;85.62;95441.13;4987916;28;20030;-87
2021/09/29 09:26:59;;;;;;;103.95;12.85;;;;;;;15.09;85.42;95443.59;4988144;28;20480;-88
2021/09/29 09:29:25;;;;;;;1999.90;141.35;;;;;;;14.94;84.58;95414.16;4987834;28;20419;-87
2021/09/29 09:31:50;;;;;;;8.15;7.45;;;;;;;14.82;85.55;95415.66;4988926;28;20030;-88
2021/09/29 09:34:16;;;;;;;9.38;8.65;;;;;;;15.24;85.27;95443.56;5003868;28;20057;-86
2021/09/29 09:36:43;;;;;;;36.63;9.18;;;;;;;14.77;85.80;95405.78;4970953;28;20703;-86
2021/09/29 09:39:18;;;;;;;58.67;9.95;;;;;;;14.71;85.40;95382.22;4988001;28;20041;-88
2021/09/29 09:41:48;;;;;;;203.25;17.38;;;;;;;14.80;85.67;95394.19;4986898;28;20085;-88
2021/09/29 09:44:23;;;;;;;191.68;15.98;;;;;;;14.85;85.93;95428.31;4988573;28;20511;-92
2021/09/29 09:47:10;;;;;;;39.60;8.52;;;;;;;14.69;85.84;95415.50;4976709;28;20026;-87
2021/09/29 09:49:45;;;;;;;143.07;15.18;;;;;;;15.07;86.07;95456.03;4983864;28;20030;-86
2021/09/29 09:52:11;;;;;;;10.02;9.13;;;;;;;14.97;87.11;95452.91;4970844;28;20026;-88
2021/09/29 09:54:37;;;;;;;9.38;8.68;;;;;;;14.80;87.40;95445.53;4979910;28;20049;-89
2021/09/29 09:57:15;;;;;;;188.50;19.85;;;;;;;14.89;86.79;95445.22;4998636;28;20081;-87
2021/09/29 09:59:46;;;;;;;1644.82;94.05;;;;;;;14.92;86.46;95452.69;4950782;28;20039;-91
2021/09/29 10:02:11;;;;;;;1647.30;86.20;;;;;;;14.75;87.28;95454.69;4983236;28;20067;-88
2021/09/29 10:04:37;;;;;;;43.67;12.85;;;;;;;15.10;87.72;95457.47;4967011;28;20023;-85
2021/09/29 10:07:06;;;;;;;1999.90;243.52;;;;;;;14.97;87.03;95458.13;4983528;28;20556;-87
2021/09/29 10:12:25;;;;;;;240.07;21.15;;;;;;;14.84;87.29;95438.94;4978335;28;20046;-88
2021/09/29 10:23:17;;;;;;;14.13;12.82;;;;;;;15.11;87.51;95446.03;4975817;28;20531;-88
2021/09/29 10:26:21;;;;;;;77.32;15.15;;;;;;;15.08;86.78;95457.66;4977539;28;20035;-92
2021/09/29 10:28:47;;;;;;;14.38;13.07;;;;;;;15.16;86.21;95457.53;4948208;28;20028;-87
2021/09/29 10:31:27;;;;;;;12.90;11.80;;;;;;;15.28;85.79;95444.81;4980528;28;20104;-87
2021/09/29 10:34:11;;;;;;;14.20;13.10;;;;;;;14.85;85.60;95425.72;4977156;28;20031;-87
2021/09/29 10:37:13;;;;;;;15.18;13.77;;;;;;;15.17;86.28;95453.94;4978038;28;20408;-85
2021/09/29 10:42:39;;;;;;;137.80;18.42;;;;;;;15.23;83.83;95421.88;4974302;28;20407;-87
2021/09/29 10:48:06;;;;;;;41.50;14.55;;;;;;;15.20;86.66;95444.91;4981425;28;20045;-87
2021/09/29 11:32:04;;;;;;;378.73;29.73;;;;;;;14.90;87.01;95425.97;4963163;28;20070;-86
2021/09/29 11:34:18;;;;;;;1388.72;76.18;;;;;;;15.08;85.82;95434.19;4971427;28;20088;-86
2021/09/29 11:36:57;;;;;;;1617.93;85.35;;;;;;;14.70;87.07;95425.75;4984529;28;20046;-87
2021/09/29 12:12:48;;;;;;;1473.43;89.45;;;;;;;14.62;86.83;95396.38;4970393;28;20476;-88
2021/09/29 12:15:01;;;;;;;39.80;15.60;;;;;;;15.06;87.04;95428.31;4964793;28;20077;-86
2021/09/29 12:17:31;;;;;;;1477.07;74.68;;;;;;;14.93;86.19;95424.81;4968024;28;20018;-87
2021/09/29 12:20:00;;;;;;;323.83;25.88;;;;;;;15.01;85.91;95422.06;4967939;28;20038;-85
2021/09/29 12:22:28;;;;;;;15.20;13.90;;;;;;;15.13;86.28;95405.72;4967459;28;20077;-84
2021/09/29 12:25:17;;;;;;;13.85;12.73;;;;;;;15.42;85.46;95422.22;4985248;28;20114;-87
2021/09/29 12:30:37;;;;;;;14.38;13.32;;;;;;;15.51;84.36;95418.53;4984388;28;20074;-83
2021/09/29 12:35:54;;;;;;;16.20;14.90;;;;;;;15.36;85.12;95412.53;4967080;28;20393;-88
2021/09/29 12:38:18;;;;;;;18.63;16.92;;;;;;;15.37;86.28;95416.75;4953982;28;20038;-84
2021/09/29 12:40:45;;;;;;;1517.47;83.80;;;;;;;14.65;87.93;95420.28;4968930;28;20034;-88
2021/09/29 12:43:16;;;;;;;1992.60;110.65;;;;;;;14.76;87.79;95419.00;4954114;28;20030;-96
2021/09/29 12:45:43;;;;;;;1999.90;139.70;;;;;;;14.60;87.91;95419.22;4952052;28;20015;-90
2021/09/29 12:48:10;;;;;;;91.43;23.23;;;;;;;14.80;87.75;95416.84;4969578;28;20041;-92
2021/09/29 12:50:58;;;;;;;1313.70;75.57;;;;;;;14.43;87.61;95396.97;4969173;28;20514;-86
2021/09/29 12:55:55;;;;;;;314.55;32.00;;;;;;;14.76;86.51;95388.53;4969832;28;20039;-93
2021/09/29 12:58:20;;;;;;;1576.70;86.20;;;;;;;14.92;86.29;95410.13;4970326;28;20031;-91
2021/09/29 13:00:46;;;;;;;1999.90;151.63;;;;;;;14.90;86.27;95410.31;4952664;28;20042;-92
2021/09/29 13:03:12;;;;;;;48.70;21.48;;;;;;;15.05;86.12;95415.47;4950773;29;20051;-89
2021/09/29 13:05:38;;;;;;;20.60;18.55;;;;;;;15.28;85.29;95409.06;4949543;29;20477;-87
2021/09/29 13:08:04;;;;;;;1336.97;76.95;;;;;;;14.94;85.75;95402.91;4952441;28;20027;-94
2021/09/29 13:10:30;;;;;;;1051.88;64.50;;;;;;;14.96;86.40;95404.34;4949260;28;20070;-86
2021/09/29 13:12:55;;;;;;;20.25;17.83;;;;;;;14.93;86.20;95385.69;4927095;28;20023;-88
2021/09/29 13:15:22;;;;;;;22.73;20.48;;;;;;;14.98;85.86;95412.81;4967323;28;20042;-89
2021/09/29 13:17:50;;;;;;;1999.90;135.93;;;;;;;14.74;86.98;95419.19;4950709;28;20061;-87
2021/09/29 13:20:37;;;;;;;79.80;20.67;;;;;;;14.80;87.05;95409.84;4965988;28;20047;-92
2021/09/29 13:38:58;;;;;;;1999.90;198.98;;;;;;;14.35;87.05;95410.94;4948743;29;20421;-83
2021/09/29 13:41:24;;;;;;;1434.60;78.07;;;;;;;14.34;87.40;95414.53;4931663;29;20027;-85
2021/09/29 13:43:49;;;;;;;1564.70;95.85;;;;;;;14.36;87.74;95424.75;4948782;28;20472;-87
2021/09/29 13:46:15;;;;;;;136.25;22.48;;;;;;;14.48;87.90;95421.50;4949509;29;20034;-93
2021/09/29 13:48:40;;;;;;;76.60;21.30;;;;;;;14.41;88.13;95406.78;4949431;29;20477;-87
2021/09/29 13:51:06;;;;;;;221.10;26.67;;;;;;;14.39;88.41;95427.00;4932884;29;20504;-90
2021/09/29 13:53:31;;;;;;;23.40;20.58;;;;;;;14.24;88.84;95421.78;4931447;29;20098;-91
2021/09/29 13:56:01;;;;;;;880.95;56.95;;;;;;;13.98;89.19;95388.38;4932203;29;20135;-92
2021/09/29 13:58:41;;;;;;;741.33;51.35;;;;;;;14.14;89.51;95419.44;4930142;29;20039;-89
2021/09/29 14:30:44;;;;;;;1734.18;101.18;;;;;;;13.88;92.79;95450.34;4967039;28;20308;-84
2021/09/29 14:33:23;;;;;;;77.18;27.65;;;;;;;13.85;93.18;95442.88;4949736;28;20030;-86
2021/09/29 14:35:48;;;;;;;74.20;28.38;;;;;;;13.80;93.07;95432.22;4965634;28;20018;-82
2021/09/29 14:38:14;;;;;;;579.47;46.00;;;;;;;13.98;92.83;95453.50;4949598;28;20385;-86
2021/09/29 14:40:39;;;;;;;1804.95;127.03;;;;;;;13.89;92.88;95451.97;4953625;28;20027;-82
2021/09/29 14:43:05;;;;;;;1285.07;82.13;;;;;;;13.79;92.67;95435.78;4991106;28;20405;-85
2021/09/29 14:45:30;;;;;;;41.47;25.90;;;;;;;13.84;93.34;95443.06;4968918;28;20029;-89
2021/09/29 14:47:56;;;;;;;93.13;27.67;;;;;;;13.89;93.44;95441.53;4975887;28;20030;-84
2021/09/29 14:50:27;;;;;;;27.20;24.38;;;;;;;13.95;93.23;95442.63;4965881;28;20027;-86
2021/09/29 14:52:57;;;;;;;1373.90;87.03;;;;;;;13.77;93.75;95450.78;4967401;28;20034;-89
2021/09/29 14:55:23;;;;;;;410.40;38.88;;;;;;;13.59;94.43;95450.28;4947606;29;20058;-90
2021/09/29 14:57:49;;;;;;;1461.90;90.75;;;;;;;13.43;95.09;95432.22;4953707;28;20033;-89
2021/09/29 15:00:15;;;;;;;1999.90;148.77;;;;;;;13.58;95.01;95451.28;4960220;28;20300;-88
2021/09/29 15:02:40;;;;;;;1880.80;105.90;;;;;;;13.53;95.13;95457.00;4965509;28;20105;-88
2021/09/29 15:05:06;;;;;;;1599.18;104.57;;;;;;;13.55;95.34;95472.47;4950261;28;20040;-81
2021/09/29 15:07:32;;;;;;;890.03;61.72;;;;;;;13.54;95.15;95460.44;4965057;28;20090;-83
2021/09/29 15:09:57;;;;;;;24.95;22.55;;;;;;;13.50;95.50;95461.75;4966310;28;20077;-90
2021/09/29 15:12:23;;;;;;;1776.38;105.63;;;;;;;13.47;95.69;95472.53;4949478;28;20027;-84
2021/09/29 15:15:01;;;;;;;983.15;68.20;;;;;;;13.38;96.35;95468.38;4968133;28;20045;-86
2021/09/29 15:17:34;;;;;;;467.77;48.38;;;;;;;13.41;96.83;95478.44;4979675;28;20061;-90
2021/09/29 15:20:12;;;;;;;1356.30;82.60;;;;;;;13.22;97.06;95447.69;4982771;28;20471;-79
2021/09/29 15:23:01;;;;;;;839.78;66.45;;;;;;;13.40;97.32;95480.22;4986595;28;20030;-84
2021/09/29 15:47:29;;;;;;;104.65;16.73;;;;;;;13.44;96.91;95478.91;4971125;28;20133;-88
2021/09/29 15:50:46;;;;;;;74.07;17.85;;;;;;;13.44;96.77;95467.66;4970976;28;20112;-87
2021/09/29 15:52:49;;;;;;;629.65;45.35;;;;;;;13.39;97.31;95472.59;4971384;28;20097;-87
2021/09/29 15:55:24;;;;;;;99.65;18.45;;;;;;;13.30;97.52;95477.03;4971129;28;20034;-88
2021/09/29 15:58:07;;;;;;;14.75;13.55;;;;;;;13.38;97.44;95471.78;4941871;28;20027;-85
2021/09/29 16:03:29;;;;;;;48.17;12.43;;;;;;;13.23;97.23;95460.50;4971289;28;20054;-93
2021/09/29 16:18:22;;;;;;;11.27;10.35;;;;;;;13.41;96.25;95475.81;4972376;28;20035;-86
2021/09/29 16:23:49;;;;;;;10.20;9.50;;;;;;;13.34;96.00;95472.31;4972831;28;20140;-85
2021/09/29 16:31:29;;;;;;;15.45;13.65;;;;;;;13.44;95.64;95504.91;4969800;28;20035;-86
2021/09/29 16:36:20;;;;;;;31.27;13.25;;;;;;;13.42;95.48;95506.88;4970774;28;20031;-87
2021/09/29 16:38:46;;;;;;;13.00;11.90;;;;;;;13.35;95.56;95500.75;4953927;28;20034;-87
2021/09/29 16:41:13;;;;;;;14.55;13.27;;;;;;;13.29;95.70;95480.66;4961027;28;20415;-86
2021/09/29 16:43:40;;;;;;;14.90;13.55;;;;;;;13.46;95.40;95510.75;4973631;28;20084;-85
2021/09/29 16:46:05;;;;;;;15.52;14.15;;;;;;;13.36;95.22;95504.97;4966021;28;20019;-87
2021/09/29 16:48:33;;;;;;;19.17;17.48;;;;;;;13.35;95.78;95521.56;4974809;28;20085;-85
2021/09/29 16:53:36;;;;;;;16.40;14.75;;;;;;;13.34;96.12;95509.53;4969635;28;20030;-85
2021/09/29 16:56:02;;;;;;;16.70;15.20;;;;;;;13.37;96.37;95503.97;4978943;28;20042;-86
2021/09/29 16:58:38;;;;;;;17.35;15.98;;;;;;;13.41;96.30;95509.66;4953761;28;20475;-87
2021/09/29 17:01:13;;;;;;;23.83;15.38;;;;;;;13.17;95.63;95489.81;4981686;28;20023;-87
2021/09/29 17:03:40;;;;;;;18.60;16.90;;;;;;;13.29;95.96;95522.28;4978857;28;20069;-83
2021/09/29 17:06:06;;;;;;;946.63;61.05;;;;;;;13.27;95.43;95531.19;4989618;28;20092;-88
2021/09/29 17:08:32;;;;;;;17.35;15.70;;;;;;;13.30;95.35;95543.88;4968036;28;20027;-89
2021/09/29 17:10:58;;;;;;;19.17;17.60;;;;;;;13.37;95.06;95518.78;4970194;28;20023;-89
2021/09/29 17:13:25;;;;;;;20.02;18.13;;;;;;;13.48;95.16;95534.81;4951885;28;20420;-87
2021/09/29 17:15:56;;;;;;;19.33;17.73;;;;;;;13.45;95.08;95521.34;4986083;28;20498;-86
2021/09/29 17:18:25;;;;;;;20.27;18.35;;;;;;;13.54;95.25;95533.31;4985472;28;20058;-86
2021/09/29 17:20:50;;;;;;;27.30;17.58;;;;;;;13.39;95.42;95533.22;4969252;28;20565;-85
2021/09/29 17:23:16;;;;;;;16.58;15.18;;;;;;;13.42;96.28;95539.91;4967245;28;20026;-86
2021/09/29 17:25:41;;;;;;;907.13;59.58;;;;;;;13.15;96.62;95529.00;4981862;28;20054;-85
2021/09/29 17:28:07;;;;;;;59.60;17.10;;;;;;;13.13;96.54;95533.56;4985435;28;20113;-86
2021/09/29 17:30:39;;;;;;;17.08;15.38;;;;;;;13.18;96.75;95544.28;4967962;28;20437;-89
2021/09/29 17:39:00;;;;;;;20.85;18.83;;;;;;;13.09;97.80;95544.50;4967367;28;20066;-88
2021/09/29 17:54:12;;;;;;;1456.68;107.88;;;;;;;12.99;98.64;95549.06;4968606;28;20049;-96
2021/09/29 17:56:37;;;;;;;23.33;21.10;;;;;;;12.91;98.78;95547.31;4965337;28;20448;-90
2021/09/29 17:59:03;;;;;;;366.88;38.60;;;;;;;12.94;98.60;95549.56;4951705;28;20030;-90
2021/09/29 18:01:30;;;;;;;197.95;28.30;;;;;;;12.98;98.85;95550.03;4934928;28;20500;-92
2021/09/29 18:06:29;;;;;;;1443.55;106.78;;;;;;;12.94;98.33;95552.16;4967996;28;20519;-88
2021/09/29 18:08:55;;;;;;;59.53;23.23;;;;;;;13.10;97.86;95549.50;4973507;28;20085;-94
2021/09/29 18:11:20;;;;;;;139.27;23.63;;;;;;;13.05;97.34;95527.56;4970463;28;20038;-90
2021/09/29 18:13:46;;;;;;;21.30;19.33;;;;;;;13.03;97.25;95525.16;4977321;28;20026;-88
2021/09/29 18:16:11;;;;;;;20.42;18.45;;;;;;;13.12;97.41;95547.56;4953308;28;20027;-87
2021/09/29 18:18:36;;;;;;;21.10;18.90;;;;;;;13.09;97.37;95542.72;4953659;28;20034;-95
2021/09/29 18:21:02;;;;;;;41.10;19.85;;;;;;;13.12;96.86;95544.16;4968552;28;20085;-89
2021/09/29 18:23:27;;;;;;;18.92;17.20;;;;;;;13.20;96.86;95563.09;4987884;28;20030;-88
2021/09/29 18:25:53;;;;;;;35.92;20.05;;;;;;;13.18;97.20;95559.88;4971829;28;20026;-88
2021/09/29 18:28:18;;;;;;;19.45;17.80;;;;;;;13.17;96.75;95544.44;4975016;28;20034;-88
2021/09/29 18:30:45;;;;;;;18.98;17.30;;;;;;;13.01;96.91;95534.91;4970640;28;20471;-88
2021/09/29 18:33:18;;;;;;;18.95;17.25;;;;;;;13.14;97.27;95545.59;4956340;28;20027;-89
2021/09/29 18:35:45;;;;;;;561.08;55.10;;;;;;;13.09;97.04;95547.91;4968676;28;20439;-88
2021/09/29 18:38:14;;;;;;;22.25;19.88;;;;;;;13.20;97.25;95551.88;4951577;28;20030;-86
2021/09/29 18:40:40;;;;;;;20.52;18.52;;;;;;;13.25;97.02;95546.19;4967995;28;20031;-87
2021/09/29 18:43:06;;;;;;;21.52;19.52;;;;;;;13.27;97.27;95559.81;4950916;28;20394;-87
2021/09/29 18:45:32;;;;;;;142.98;24.38;;;;;;;13.17;97.67;95545.25;4938889;28;20484;-83
2021/09/29 18:47:57;;;;;;;58.15;19.75;;;;;;;12.96;98.23;95526.81;4966041;28;20050;-89
2021/09/29 18:50:23;;;;;;;20.90;19.02;;;;;;;13.01;98.62;95531.50;4982211;28;20034;-85
2021/09/29 18:52:49;;;;;;;40.03;18.77;;;;;;;13.20;98.74;95557.91;4965102;28;20066;-84
2021/09/29 18:55:22;;;;;;;19.60;17.63;;;;;;;13.12;99.76;95560.56;4965735;28;20047;-85
2021/09/29 19:08:36;;;;;;;19.15;17.45;;;;;;;13.09;100.00;95579.13;4960141;28;20074;-85
2021/09/29 19:11:02;;;;;;;19.63;17.73;;;;;;;13.09;100.00;95583.50;4978305;28;20050;-86
2021/09/29 19:13:29;;;;;;;19.35;17.55;;;;;;;13.07;100.00;95593.22;4964940;28;20129;-84
2021/09/29 19:15:55;;;;;;;18.35;16.52;;;;;;;12.89;100.00;95572.66;4966092;28;20022;-83
2021/09/29 19:18:21;;;;;;;20.70;18.50;;;;;;;12.81;100.00;95584.91;4964682;28;20034;-83
2021/09/29 19:20:49;;;;;;;19.35;17.25;;;;;;;12.85;100.00;95599.97;4967003;28;20498;-85
2021/09/29 19:23:15;;;;;;;21.10;19.17;;;;;;;12.94;100.00;95605.97;4965040;28;20038;-86
2021/09/29 19:25:42;;;;;;;20.17;18.13;;;;;;;12.88;100.00;95576.25;4966552;28;20023;-87
2021/09/29 19:28:17;;;;;;;21.55;19.65;;;;;;;12.84;100.00;95571.56;4935124;28;20035;-88
2021/09/29 19:30:43;;;;;;;21.27;19.48;;;;;;;12.91;100.00;95598.50;4951754;28;20475;-88
2021/09/29 19:33:09;;;;;;;22.92;20.52;;;;;;;13.04;100.00;95596.97;4951393;28;20034;-85
2021/09/29 19:35:34;;;;;;;108.75;24.02;;;;;;;13.09;99.75;95578.31;4965137;28;20035;-85
2021/09/29 19:38:03;;;;;;;24.08;21.77;;;;;;;13.10;99.17;95585.09;4966398;28;20067;-85
2021/09/29 19:40:28;;;;;;;24.55;21.85;;;;;;;13.10;99.28;95585.91;4965991;28;20034;-87
2021/09/29 19:42:54;;;;;;;22.83;20.15;;;;;;;12.90;98.69;95550.09;4966873;28;20034;-89
2021/09/29 19:45:19;;;;;;;24.42;21.80;;;;;;;13.03;99.00;95563.34;4966538;28;20027;-88
2021/09/29 20:07:28;;;;;;;19.48;17.27;;;;;;;13.02;96.96;95557.34;4970819;28;20061;-89
2021/09/29 20:09:54;;;;;;;19.65;17.10;;;;;;;13.06;96.89;95563.00;4969927;28;20121;-88
2021/09/29 20:12:20;;;;;;;23.48;17.85;;;;;;;13.03;96.83;95558.97;4971396;28;20023;-89
2021/09/29 20:14:46;;;;;;;56.00;18.38;;;;;;;13.02;97.53;95559.94;4937018;28;20703;-89
2021/09/29 20:17:11;;;;;;;23.10;19.50;;;;;;;13.01;97.53;95553.09;4953928;28;20042;-85
2021/09/29 20:19:37;;;;;;;21.95;18.27;;;;;;;12.49;97.97;95484.50;4952838;28;20452;-85
2021/09/29 20:22:02;;;;;;;19.73;17.63;;;;;;;12.92;97.90;95550.72;4952066;28;20042;-85
2021/09/29 20:24:29;;;;;;;21.70;19.40;;;;;;;12.79;98.10;95530.47;4971469;28;20046;-85
2021/09/29 20:26:55;;;;;;;24.50;18.77;;;;;;;12.87;98.43;95564.25;4968245;28;20065;-85
2021/09/29 20:29:20;;;;;;;16.77;15.05;;;;;;;12.83;98.11;95547.34;4953643;28;20046;-85
2021/09/29 20:31:46;;;;;;;61.78;19.00;;;;;;;12.85;97.91;95541.97;4951870;28;20035;-87
2021/09/29 20:44:53;;;;;;;16.13;14.45;;;;;;;12.91;97.82;95573.31;4948371;29;20034;-83
2021/09/29 20:47:20;;;;;;;17.95;16.27;;;;;;;12.65;97.45;95513.78;4950835;29;20035;-84
2021/09/29 20:49:45;;;;;;;19.08;16.90;;;;;;;12.98;97.28;95556.06;4966641;28;20041;-82
2021/09/29 20:52:12;;;;;;;18.45;16.55;;;;;;;12.92;98.18;95550.72;4951755;28;20357;-82
2021/09/29 20:54:38;;;;;;;18.30;16.40;;;;;;;12.96;98.46;95562.41;4969369;28;20478;-83
2021/09/29 20:57:04;;;;;;;18.20;16.60;;;;;;;12.71;99.08;95530.53;4968592;28;20061;-85
2021/09/29 20:59:30;;;;;;;18.58;16.67;;;;;;;12.76;99.46;95551.59;4935100;29;20452;-86
2021/09/29 21:01:55;;;;;;;19.40;17.60;;;;;;;12.62;98.82;95519.34;4933509;29;20047;-85
2021/09/29 21:04:20;;;;;;;18.50;16.75;;;;;;;12.93;99.05;95579.16;4950529;29;20446;-85
2021/09/29 21:06:46;;;;;;;19.23;15.70;;;;;;;13.10;98.65;95592.91;4933273;29;20019;-85
2021/09/29 21:09:17;;;;;;;17.55;15.73;;;;;;;13.13;98.52;95600.41;4946532;28;20031;-85
2021/09/29 21:19:56;;;;;;;34.95;23.15;;;;;;;13.05;99.46;95611.59;4983425;28;20563;-85
2021/09/29 21:22:22;;;;;;;25.80;20.83;;;;;;;13.04;99.52;95606.56;4965334;28;20034;-85
2021/09/29 21:24:47;;;;;;;22.08;17.98;;;;;;;12.93;99.71;95586.97;4968019;28;20033;-85